sensor_id;sensor_type;location;lat;lon;timestamp;P1;durP1;ratioP1;P2;durP2;ratioP2
6388;SDS011;3227;42.654;23.360;2022-09-09T00:00:24;19.33;;;9.82;;
6388;SDS011;3227;42.654;23.360;2022-09-09T00:02:55;14.68;;;9.30;;
6388;SDS011;3227;42.654;23.360;2022-09-09T00:05:31;13.50;;;9.48;;
6388;SDS011;3227;42.654;23.360;2022-09-09T00:08:06;15.57;;;9.65;;
6388;SDS011;3227;42.654;23.360;2022-09-09T00:10:41;13.93;;;9.43;;
6388;SDS011;3227;42.654;23.360;2022-09-09T00:13:12;15.02;;;9.82;;
6388;SDS011;3227;42.654;23.360;2022-09-09T00:15:46;13.48;;;9.25;;
6388;SDS011;3227;42.654;23.360;2022-09-09T00:18:23;14.82;;;9.57;;
6388;SDS011;3227;42.654;23.360;2022-09-09T00:20:55;14.52;;;9.35;;
6388;SDS011;3227;42.654;23.360;2022-09-09T00:23:30;14.40;;;9.27;;
6388;SDS011;3227;42.654;23.360;2022-09-09T00:26:02;12.95;;;9.00;;
6388;SDS011;3227;42.654;23.360;2022-09-09T00:28:36;12.33;;;9.20;;
6388;SDS011;3227;42.654;23.360;2022-09-09T00:31:11;17.45;;;8.82;;
6388;SDS011;3227;42.654;23.360;2022-09-09T00:33:39;13.85;;;9.32;;
6388;SDS011;3227;42.654;23.360;2022-09-09T00:36:12;14.88;;;9.15;;
6388;SDS011;3227;42.654;23.360;2022-09-09T00:38:42;12.88;;;9.13;;
6388;SDS011;3227;42.654;23.360;2022-09-09T00:41:14;20.05;;;8.88;;
6388;SDS011;3227;42.654;23.360;2022-09-09T00:43:46;14.35;;;9.55;;
6388;SDS011;3227;42.654;23.360;2022-09-09T00:46:25;15.38;;;9.50;;
6388;SDS011;3227;42.654;23.360;2022-09-09T00:49:13;11.85;;;8.77;;
6388;SDS011;3227;42.654;23.360;2022-09-09T00:51:48;15.55;;;9.73;;
6388;SDS011;3227;42.654;23.360;2022-09-09T00:54:28;12.80;;;9.43;;
6388;SDS011;3227;42.654;23.360;2022-09-09T00:57:07;12.93;;;9.27;;
6388;SDS011;3227;42.654;23.360;2022-09-09T00:59:45;14.45;;;9.32;;
6388;SDS011;3227;42.654;23.360;2022-09-09T01:02:18;17.73;;;9.02;;
6388;SDS011;3227;42.654;23.360;2022-09-09T01:04:54;15.35;;;8.82;;
6388;SDS011;3227;42.654;23.360;2022-09-09T01:07:29;14.55;;;8.50;;
6388;SDS011;3227;42.654;23.360;2022-09-09T01:09:57;13.55;;;7.90;;
6388;SDS011;3227;42.654;23.360;2022-09-09T01:12:29;12.70;;;8.52;;
6388;SDS011;3227;42.654;23.360;2022-09-09T01:15:09;12.85;;;8.98;;
6388;SDS011;3227;42.654;23.360;2022-09-09T01:17:48;12.40;;;8.85;;
6388;SDS011;3227;42.654;23.360;2022-09-09T01:20:21;17.27;;;8.73;;
6388;SDS011;3227;42.654;23.360;2022-09-09T01:22:57;11.07;;;8.13;;
6388;SDS011;3227;42.654;23.360;2022-09-09T01:26:02;11.50;;;8.00;;
6388;SDS011;3227;42.654;23.360;2022-09-09T01:28:49;20.27;;;8.60;;
6388;SDS011;3227;42.654;23.360;2022-09-09T01:31:19;12.02;;;9.23;;
6388;SDS011;3227;42.654;23.360;2022-09-09T01:33:48;15.65;;;8.52;;
6388;SDS011;3227;42.654;23.360;2022-09-09T01:36:18;14.63;;;8.88;;
6388;SDS011;3227;42.654;23.360;2022-09-09T01:38:51;13.52;;;9.05;;
6388;SDS011;3227;42.654;23.360;2022-09-09T01:41:19;13.03;;;9.10;;
6388;SDS011;3227;42.654;23.360;2022-09-09T01:43:47;12.47;;;9.00;;
6388;SDS011;3227;42.654;23.360;2022-09-09T01:46:14;16.90;;;8.95;;
6388;SDS011;3227;42.654;23.360;2022-09-09T01:48:41;12.70;;;9.17;;
6388;SDS011;3227;42.654;23.360;2022-09-09T01:51:08;14.18;;;8.90;;
6388;SDS011;3227;42.654;23.360;2022-09-09T01:53:36;17.93;;;9.50;;
6388;SDS011;3227;42.654;23.360;2022-09-09T01:56:09;13.65;;;8.57;;
6388;SDS011;3227;42.654;23.360;2022-09-09T01:58:47;14.57;;;8.67;;
6388;SDS011;3227;42.654;23.360;2022-09-09T02:01:27;16.07;;;9.63;;
6388;SDS011;3227;42.654;23.360;2022-09-09T02:04:08;14.00;;;9.87;;
6388;SDS011;3227;42.654;23.360;2022-09-09T02:06:44;11.47;;;8.93;;
6388;SDS011;3227;42.654;23.360;2022-09-09T02:09:14;15.83;;;9.37;;
6388;SDS011;3227;42.654;23.360;2022-09-09T02:11:48;11.87;;;9.50;;
6388;SDS011;3227;42.654;23.360;2022-09-09T02:14:27;18.20;;;9.47;;
6388;SDS011;3227;42.654;23.360;2022-09-09T02:17:00;13.90;;;9.73;;
6388;SDS011;3227;42.654;23.360;2022-09-09T02:19:31;16.57;;;9.30;;
6388;SDS011;3227;42.654;23.360;2022-09-09T02:22:01;15.80;;;9.70;;
6388;SDS011;3227;42.654;23.360;2022-09-09T02:24:29;14.10;;;9.47;;
6388;SDS011;3227;42.654;23.360;2022-09-09T02:26:59;12.50;;;9.93;;
6388;SDS011;3227;42.654;23.360;2022-09-09T02:29:33;11.40;;;9.43;;
6388;SDS011;3227;42.654;23.360;2022-09-09T02:32:04;14.77;;;9.60;;
6388;SDS011;3227;42.654;23.360;2022-09-09T02:34:38;14.27;;;9.60;;
6388;SDS011;3227;42.654;23.360;2022-09-09T02:37:11;14.00;;;9.93;;
6388;SDS011;3227;42.654;23.360;2022-09-09T02:39:41;11.97;;;8.90;;
6388;SDS011;3227;42.654;23.360;2022-09-09T02:42:08;16.37;;;9.97;;
6388;SDS011;3227;42.654;23.360;2022-09-09T02:44:36;14.13;;;9.40;;
6388;SDS011;3227;42.654;23.360;2022-09-09T02:50:04;13.67;;;9.73;;
6388;SDS011;3227;42.654;23.360;2022-09-09T02:52:40;14.60;;;9.70;;
6388;SDS011;3227;42.654;23.360;2022-09-09T02:55:16;15.97;;;10.60;;
6388;SDS011;3227;42.654;23.360;2022-09-09T02:57:50;15.97;;;10.23;;
6388;SDS011;3227;42.654;23.360;2022-09-09T03:00:23;15.77;;;10.23;;
6388;SDS011;3227;42.654;23.360;2022-09-09T03:02:51;14.17;;;10.23;;
6388;SDS011;3227;42.654;23.360;2022-09-09T03:05:18;15.40;;;10.30;;
6388;SDS011;3227;42.654;23.360;2022-09-09T03:07:45;18.07;;;10.37;;
6388;SDS011;3227;42.654;23.360;2022-09-09T03:10:12;14.57;;;9.87;;
6388;SDS011;3227;42.654;23.360;2022-09-09T03:12:39;15.27;;;10.87;;
6388;SDS011;3227;42.654;23.360;2022-09-09T03:15:06;14.47;;;10.27;;
6388;SDS011;3227;42.654;23.360;2022-09-09T03:17:36;15.40;;;10.37;;
6388;SDS011;3227;42.654;23.360;2022-09-09T03:20:03;19.80;;;10.90;;
6388;SDS011;3227;42.654;23.360;2022-09-09T03:22:30;17.77;;;11.50;;
6388;SDS011;3227;42.654;23.360;2022-09-09T03:24:57;20.73;;;10.33;;
6388;SDS011;3227;42.654;23.360;2022-09-09T03:27:24;19.27;;;10.50;;
6388;SDS011;3227;42.654;23.360;2022-09-09T03:29:51;17.53;;;10.53;;
6388;SDS011;3227;42.654;23.360;2022-09-09T03:32:18;20.50;;;11.50;;
6388;SDS011;3227;42.654;23.360;2022-09-09T03:34:48;20.37;;;10.27;;
6388;SDS011;3227;42.654;23.360;2022-09-09T03:37:15;18.33;;;11.17;;
6388;SDS011;3227;42.654;23.360;2022-09-09T03:39:42;19.17;;;11.10;;
6388;SDS011;3227;42.654;23.360;2022-09-09T03:42:11;23.40;;;10.97;;
6388;SDS011;3227;42.654;23.360;2022-09-09T03:44:43;16.17;;;10.37;;
6388;SDS011;3227;42.654;23.360;2022-09-09T03:47:13;13.73;;;10.20;;
6388;SDS011;3227;42.654;23.360;2022-09-09T03:49:40;16.83;;;11.07;;
6388;SDS011;3227;42.654;23.360;2022-09-09T03:52:09;18.30;;;10.67;;
6388;SDS011;3227;42.654;23.360;2022-09-09T03:54:36;16.27;;;10.40;;
6388;SDS011;3227;42.654;23.360;2022-09-09T03:57:03;21.37;;;11.67;;
6388;SDS011;3227;42.654;23.360;2022-09-09T03:59:31;16.10;;;10.40;;
6388;SDS011;3227;42.654;23.360;2022-09-09T04:01:58;16.23;;;10.60;;
6388;SDS011;3227;42.654;23.360;2022-09-09T04:04:25;15.27;;;10.83;;
6388;SDS011;3227;42.654;23.360;2022-09-09T04:06:52;15.67;;;11.03;;
6388;SDS011;3227;42.654;23.360;2022-09-09T04:09:20;23.53;;;11.17;;
6388;SDS011;3227;42.654;23.360;2022-09-09T04:11:48;17.57;;;10.97;;
6388;SDS011;3227;42.654;23.360;2022-09-09T04:14:15;18.03;;;11.27;;
6388;SDS011;3227;42.654;23.360;2022-09-09T04:16:42;23.77;;;11.60;;
6388;SDS011;3227;42.654;23.360;2022-09-09T04:19:09;20.47;;;11.93;;
6388;SDS011;3227;42.654;23.360;2022-09-09T04:21:37;15.17;;;10.93;;
6388;SDS011;3227;42.654;23.360;2022-09-09T04:24:06;18.70;;;11.47;;
6388;SDS011;3227;42.654;23.360;2022-09-09T04:26:34;19.03;;;11.00;;
6388;SDS011;3227;42.654;23.360;2022-09-09T04:29:02;22.60;;;11.23;;
6388;SDS011;3227;42.654;23.360;2022-09-09T04:31:30;22.65;;;10.68;;
6388;SDS011;3227;42.654;23.360;2022-09-09T04:33:57;22.17;;;12.05;;
6388;SDS011;3227;42.654;23.360;2022-09-09T04:36:27;25.55;;;12.30;;
6388;SDS011;3227;42.654;23.360;2022-09-09T04:38:54;26.20;;;13.27;;
6388;SDS011;3227;42.654;23.360;2022-09-09T04:41:20;25.35;;;13.63;;
6388;SDS011;3227;42.654;23.360;2022-09-09T04:43:49;20.45;;;11.30;;
6388;SDS011;3227;42.654;23.360;2022-09-09T04:46:18;17.33;;;11.43;;
6388;SDS011;3227;42.654;23.360;2022-09-09T04:48:45;28.30;;;11.20;;
6388;SDS011;3227;42.654;23.360;2022-09-09T04:51:13;30.17;;;11.30;;
6388;SDS011;3227;42.654;23.360;2022-09-09T04:53:40;25.63;;;11.63;;
6388;SDS011;3227;42.654;23.360;2022-09-09T04:56:08;29.10;;;11.70;;
6388;SDS011;3227;42.654;23.360;2022-09-09T04:58:36;22.83;;;11.95;;
6388;SDS011;3227;42.654;23.360;2022-09-09T05:01:06;25.88;;;12.10;;
6388;SDS011;3227;42.654;23.360;2022-09-09T05:03:33;26.60;;;11.70;;
6388;SDS011;3227;42.654;23.360;2022-09-09T05:06:07;19.80;;;11.48;;
6388;SDS011;3227;42.654;23.360;2022-09-09T05:08:35;27.45;;;11.65;;
6388;SDS011;3227;42.654;23.360;2022-09-09T05:11:03;28.67;;;12.10;;
6388;SDS011;3227;42.654;23.360;2022-09-09T05:13:30;20.98;;;12.73;;
6388;SDS011;3227;42.654;23.360;2022-09-09T05:16:09;25.00;;;13.18;;
6388;SDS011;3227;42.654;23.360;2022-09-09T05:18:37;17.70;;;11.27;;
6388;SDS011;3227;42.654;23.360;2022-09-09T05:21:04;20.00;;;8.88;;
6388;SDS011;3227;42.654;23.360;2022-09-09T05:23:31;17.40;;;9.95;;
6388;SDS011;3227;42.654;23.360;2022-09-09T05:25:59;17.75;;;9.45;;
6388;SDS011;3227;42.654;23.360;2022-09-09T05:28:26;14.05;;;7.65;;
6388;SDS011;3227;42.654;23.360;2022-09-09T05:30:57;17.60;;;8.43;;
6388;SDS011;3227;42.654;23.360;2022-09-09T05:33:26;17.88;;;7.78;;
6388;SDS011;3227;42.654;23.360;2022-09-09T05:35:56;13.45;;;7.43;;
6388;SDS011;3227;42.654;23.360;2022-09-09T05:38:35;13.32;;;7.65;;
6388;SDS011;3227;42.654;23.360;2022-09-09T05:41:03;14.18;;;7.85;;
6388;SDS011;3227;42.654;23.360;2022-09-09T05:43:30;19.33;;;7.10;;
6388;SDS011;3227;42.654;23.360;2022-09-09T05:46:01;10.88;;;7.28;;
6388;SDS011;3227;42.654;23.360;2022-09-09T05:48:30;14.52;;;7.68;;
6388;SDS011;3227;42.654;23.360;2022-09-09T05:50:59;10.75;;;7.10;;
6388;SDS011;3227;42.654;23.360;2022-09-09T05:53:26;12.48;;;7.38;;
6388;SDS011;3227;42.654;23.360;2022-09-09T05:56:00;14.25;;;6.70;;
6388;SDS011;3227;42.654;23.360;2022-09-09T05:58:29;14.27;;;6.18;;
6388;SDS011;3227;42.654;23.360;2022-09-09T06:01:00;10.88;;;7.18;;
6388;SDS011;3227;42.654;23.360;2022-09-09T06:03:28;13.23;;;7.25;;
6388;SDS011;3227;42.654;23.360;2022-09-09T06:05:59;12.52;;;6.10;;
6388;SDS011;3227;42.654;23.360;2022-09-09T06:08:27;11.18;;;6.32;;
6388;SDS011;3227;42.654;23.360;2022-09-09T06:11:00;10.75;;;7.10;;
6388;SDS011;3227;42.654;23.360;2022-09-09T06:13:28;12.10;;;6.85;;
6388;SDS011;3227;42.654;23.360;2022-09-09T06:15:55;11.27;;;7.13;;
6388;SDS011;3227;42.654;23.360;2022-09-09T06:18:23;11.27;;;7.00;;
6388;SDS011;3227;42.654;23.360;2022-09-09T06:20:54;9.25;;;6.32;;
6388;SDS011;3227;42.654;23.360;2022-09-09T06:23:24;12.05;;;7.00;;
6388;SDS011;3227;42.654;23.360;2022-09-09T06:25:51;13.90;;;6.78;;
6388;SDS011;3227;42.654;23.360;2022-09-09T06:28:26;13.02;;;7.53;;
6388;SDS011;3227;42.654;23.360;2022-09-09T06:30:56;12.20;;;7.40;;
6388;SDS011;3227;42.654;23.360;2022-09-09T06:33:24;11.73;;;7.25;;
6388;SDS011;3227;42.654;23.360;2022-09-09T06:35:51;15.25;;;8.18;;
6388;SDS011;3227;42.654;23.360;2022-09-09T06:38:18;15.32;;;7.63;;
6388;SDS011;3227;42.654;23.360;2022-09-09T06:40:51;21.85;;;7.95;;
6388;SDS011;3227;42.654;23.360;2022-09-09T06:43:20;15.38;;;8.20;;
6388;SDS011;3227;42.654;23.360;2022-09-09T06:45:52;15.10;;;7.90;;
6388;SDS011;3227;42.654;23.360;2022-09-09T06:48:19;12.60;;;7.78;;
6388;SDS011;3227;42.654;23.360;2022-09-09T06:50:46;15.93;;;7.93;;
6388;SDS011;3227;42.654;23.360;2022-09-09T06:53:15;13.43;;;7.40;;
6388;SDS011;3227;42.654;23.360;2022-09-09T06:55:44;12.15;;;7.95;;
6388;SDS011;3227;42.654;23.360;2022-09-09T06:58:13;11.65;;;7.38;;
6388;SDS011;3227;42.654;23.360;2022-09-09T07:00:39;12.60;;;7.05;;
6388;SDS011;3227;42.654;23.360;2022-09-09T07:03:07;13.48;;;7.72;;
6388;SDS011;3227;42.654;23.360;2022-09-09T07:05:33;12.65;;;7.38;;
6388;SDS011;3227;42.654;23.360;2022-09-09T07:08:00;12.68;;;7.20;;
6388;SDS011;3227;42.654;23.360;2022-09-09T07:10:27;14.80;;;7.28;;
6388;SDS011;3227;42.654;23.360;2022-09-09T07:12:54;14.55;;;6.47;;
6388;SDS011;3227;42.654;23.360;2022-09-09T07:15:23;13.43;;;7.65;;
6388;SDS011;3227;42.654;23.360;2022-09-09T07:17:50;12.13;;;7.32;;
6388;SDS011;3227;42.654;23.360;2022-09-09T07:20:18;12.00;;;6.55;;
6388;SDS011;3227;42.654;23.360;2022-09-09T07:22:45;10.40;;;6.25;;
6388;SDS011;3227;42.654;23.360;2022-09-09T07:25:12;14.77;;;6.90;;
6388;SDS011;3227;42.654;23.360;2022-09-09T07:27:39;14.30;;;6.90;;
6388;SDS011;3227;42.654;23.360;2022-09-09T07:30:07;19.40;;;6.90;;
6388;SDS011;3227;42.654;23.360;2022-09-09T07:32:36;18.25;;;7.10;;
6388;SDS011;3227;42.654;23.360;2022-09-09T07:35:03;13.30;;;6.85;;
6388;SDS011;3227;42.654;23.360;2022-09-09T07:37:31;13.07;;;6.45;;
6388;SDS011;3227;42.654;23.360;2022-09-09T07:39:57;14.82;;;6.47;;
6388;SDS011;3227;42.654;23.360;2022-09-09T07:42:24;9.55;;;6.25;;
6388;SDS011;3227;42.654;23.360;2022-09-09T07:44:51;12.98;;;6.20;;
6388;SDS011;3227;42.654;23.360;2022-09-09T07:47:20;13.30;;;7.38;;
6388;SDS011;3227;42.654;23.360;2022-09-09T07:49:48;9.73;;;6.35;;
6388;SDS011;3227;42.654;23.360;2022-09-09T07:52:15;20.40;;;8.90;;
6388;SDS011;3227;42.654;23.360;2022-09-09T07:54:42;12.95;;;6.70;;
6388;SDS011;3227;42.654;23.360;2022-09-09T07:57:10;11.80;;;6.78;;
6388;SDS011;3227;42.654;23.360;2022-09-09T07:59:37;10.10;;;5.45;;
6388;SDS011;3227;42.654;23.360;2022-09-09T08:02:04;9.95;;;6.20;;
6388;SDS011;3227;42.654;23.360;2022-09-09T08:04:31;16.15;;;5.75;;
6388;SDS011;3227;42.654;23.360;2022-09-09T08:07:00;9.88;;;6.22;;
6388;SDS011;3227;42.654;23.360;2022-09-09T08:09:28;10.57;;;5.40;;
6388;SDS011;3227;42.654;23.360;2022-09-09T08:11:57;10.00;;;5.65;;
6388;SDS011;3227;42.654;23.360;2022-09-09T08:14:26;10.43;;;6.28;;
6388;SDS011;3227;42.654;23.360;2022-09-09T08:16:53;10.00;;;6.28;;
6388;SDS011;3227;42.654;23.360;2022-09-09T08:19:19;9.82;;;5.82;;
6388;SDS011;3227;42.654;23.360;2022-09-09T08:21:46;10.85;;;5.85;;
6388;SDS011;3227;42.654;23.360;2022-09-09T08:24:15;11.55;;;6.18;;
6388;SDS011;3227;42.654;23.360;2022-09-09T08:26:42;10.15;;;5.53;;
6388;SDS011;3227;42.654;23.360;2022-09-09T08:29:10;14.70;;;6.18;;
6388;SDS011;3227;42.654;23.360;2022-09-09T08:31:39;11.82;;;6.05;;
6388;SDS011;3227;42.654;23.360;2022-09-09T08:34:07;15.65;;;6.18;;
6388;SDS011;3227;42.654;23.360;2022-09-09T08:36:35;12.50;;;6.18;;
6388;SDS011;3227;42.654;23.360;2022-09-09T08:39:04;10.27;;;6.10;;
6388;SDS011;3227;42.654;23.360;2022-09-09T08:41:37;13.02;;;5.95;;
6388;SDS011;3227;42.654;23.360;2022-09-09T08:44:10;15.98;;;6.57;;
6388;SDS011;3227;42.654;23.360;2022-09-09T08:46:47;17.05;;;6.85;;
6388;SDS011;3227;42.654;23.360;2022-09-09T08:49:31;17.92;;;6.57;;
6388;SDS011;3227;42.654;23.360;2022-09-09T08:52:12;14.82;;;6.82;;
6388;SDS011;3227;42.654;23.360;2022-09-09T08:54:45;14.07;;;7.50;;
6388;SDS011;3227;42.654;23.360;2022-09-09T08:57:23;13.18;;;6.43;;
6388;SDS011;3227;42.654;23.360;2022-09-09T08:59:53;11.52;;;6.50;;
6388;SDS011;3227;42.654;23.360;2022-09-09T09:02:23;12.95;;;6.60;;
6388;SDS011;3227;42.654;23.360;2022-09-09T09:04:57;10.70;;;6.47;;
6388;SDS011;3227;42.654;23.360;2022-09-09T09:07:33;12.20;;;6.07;;
6388;SDS011;3227;42.654;23.360;2022-09-09T09:10:13;18.08;;;6.70;;
6388;SDS011;3227;42.654;23.360;2022-09-09T09:12:50;15.05;;;5.93;;
6388;SDS011;3227;42.654;23.360;2022-09-09T09:15:19;14.23;;;6.65;;
6388;SDS011;3227;42.654;23.360;2022-09-09T09:17:50;13.63;;;6.13;;
6388;SDS011;3227;42.654;23.360;2022-09-09T09:20:18;15.02;;;6.88;;
6388;SDS011;3227;42.654;23.360;2022-09-09T09:22:51;13.27;;;6.55;;
6388;SDS011;3227;42.654;23.360;2022-09-09T09:25:21;15.43;;;7.13;;
6388;SDS011;3227;42.654;23.360;2022-09-09T09:27:56;13.70;;;6.35;;
6388;SDS011;3227;42.654;23.360;2022-09-09T09:30:26;13.07;;;6.57;;
6388;SDS011;3227;42.654;23.360;2022-09-09T09:32:58;10.98;;;6.28;;
6388;SDS011;3227;42.654;23.360;2022-09-09T09:35:29;11.57;;;6.75;;
6388;SDS011;3227;42.654;23.360;2022-09-09T09:37:56;11.18;;;6.28;;
6388;SDS011;3227;42.654;23.360;2022-09-09T09:40:23;13.63;;;7.25;;
6388;SDS011;3227;42.654;23.360;2022-09-09T09:42:51;13.93;;;6.22;;
6388;SDS011;3227;42.654;23.360;2022-09-09T09:45:27;15.07;;;6.60;;
6388;SDS011;3227;42.654;23.360;2022-09-09T09:48:00;10.13;;;6.20;;
6388;SDS011;3227;42.654;23.360;2022-09-09T09:50:28;12.30;;;5.95;;
6388;SDS011;3227;42.654;23.360;2022-09-09T09:52:57;12.10;;;6.10;;
6388;SDS011;3227;42.654;23.360;2022-09-09T09:55:25;12.15;;;6.03;;
6388;SDS011;3227;42.654;23.360;2022-09-09T09:58:01;12.45;;;6.20;;
6388;SDS011;3227;42.654;23.360;2022-09-09T10:00:29;12.55;;;6.30;;
6388;SDS011;3227;42.654;23.360;2022-09-09T10:02:57;14.27;;;6.30;;
6388;SDS011;3227;42.654;23.360;2022-09-09T10:05:26;11.68;;;6.30;;
6388;SDS011;3227;42.654;23.360;2022-09-09T10:08:01;13.20;;;6.50;;
6388;SDS011;3227;42.654;23.360;2022-09-09T10:10:38;13.23;;;6.90;;
6388;SDS011;3227;42.654;23.360;2022-09-09T10:13:18;19.50;;;6.72;;
6388;SDS011;3227;42.654;23.360;2022-09-09T10:15:52;13.57;;;6.50;;
6388;SDS011;3227;42.654;23.360;2022-09-09T10:18:36;14.48;;;6.65;;
6388;SDS011;3227;42.654;23.360;2022-09-09T10:21:15;11.07;;;6.22;;
6388;SDS011;3227;42.654;23.360;2022-09-09T10:24:04;11.20;;;6.85;;
6388;SDS011;3227;42.654;23.360;2022-09-09T10:26:44;17.58;;;6.50;;
6388;SDS011;3227;42.654;23.360;2022-09-09T10:29:22;10.75;;;6.00;;
6388;SDS011;3227;42.654;23.360;2022-09-09T10:32:01;11.52;;;6.10;;
6388;SDS011;3227;42.654;23.360;2022-09-09T10:34:41;13.68;;;6.28;;
6388;SDS011;3227;42.654;23.360;2022-09-09T10:37:22;13.15;;;6.70;;
6388;SDS011;3227;42.654;23.360;2022-09-09T10:40:03;12.98;;;6.22;;
6388;SDS011;3227;42.654;23.360;2022-09-09T10:42:43;13.00;;;6.63;;
6388;SDS011;3227;42.654;23.360;2022-09-09T10:45:15;13.57;;;6.25;;
6388;SDS011;3227;42.654;23.360;2022-09-09T10:47:51;14.43;;;6.38;;
6388;SDS011;3227;42.654;23.360;2022-09-09T10:50:30;11.23;;;6.43;;
6388;SDS011;3227;42.654;23.360;2022-09-09T10:53:12;12.45;;;6.18;;
6388;SDS011;3227;42.654;23.360;2022-09-09T10:55:50;14.35;;;6.30;;
6388;SDS011;3227;42.654;23.360;2022-09-09T10:58:20;11.43;;;6.38;;
6388;SDS011;3227;42.654;23.360;2022-09-09T11:00:53;15.13;;;6.10;;
6388;SDS011;3227;42.654;23.360;2022-09-09T11:03:23;11.45;;;6.90;;
6388;SDS011;3227;42.654;23.360;2022-09-09T11:05:53;11.60;;;6.63;;
6388;SDS011;3227;42.654;23.360;2022-09-09T11:08:24;11.02;;;6.65;;
6388;SDS011;3227;42.654;23.360;2022-09-09T11:10:54;11.50;;;6.90;;
6388;SDS011;3227;42.654;23.360;2022-09-09T11:13:28;13.48;;;6.38;;
6388;SDS011;3227;42.654;23.360;2022-09-09T11:16:04;12.50;;;6.82;;
6388;SDS011;3227;42.654;23.360;2022-09-09T11:18:41;19.65;;;7.20;;
6388;SDS011;3227;42.654;23.360;2022-09-09T11:21:21;17.13;;;6.80;;
6388;SDS011;3227;42.654;23.360;2022-09-09T11:23:52;18.77;;;6.80;;
6388;SDS011;3227;42.654;23.360;2022-09-09T11:26:27;14.07;;;7.00;;
6388;SDS011;3227;42.654;23.360;2022-09-09T11:29:06;14.80;;;7.75;;
6388;SDS011;3227;42.654;23.360;2022-09-09T11:31:51;15.52;;;7.30;;
6388;SDS011;3227;42.654;23.360;2022-09-09T11:34:38;11.45;;;7.30;;
6388;SDS011;3227;42.654;23.360;2022-09-09T11:37:21;14.98;;;7.70;;
6388;SDS011;3227;42.654;23.360;2022-09-09T11:40:14;17.20;;;8.00;;
6388;SDS011;3227;42.654;23.360;2022-09-09T11:42:45;13.20;;;7.72;;
6388;SDS011;3227;42.654;23.360;2022-09-09T11:45:22;12.38;;;8.40;;
6388;SDS011;3227;42.654;23.360;2022-09-09T11:47:54;14.27;;;7.68;;
6388;SDS011;3227;42.654;23.360;2022-09-09T11:50:29;16.13;;;7.95;;
6388;SDS011;3227;42.654;23.360;2022-09-09T11:53:05;12.50;;;7.65;;
6388;SDS011;3227;42.654;23.360;2022-09-09T11:55:46;12.98;;;8.32;;
6388;SDS011;3227;42.654;23.360;2022-09-09T11:58:16;14.52;;;7.85;;
6388;SDS011;3227;42.654;23.360;2022-09-09T12:00:46;14.52;;;8.07;;
6388;SDS011;3227;42.654;23.360;2022-09-09T12:06:09;16.17;;;9.48;;
6388;SDS011;3227;42.654;23.360;2022-09-09T12:08:41;16.70;;;8.63;;
6388;SDS011;3227;42.654;23.360;2022-09-09T12:11:10;14.45;;;8.10;;
6388;SDS011;3227;42.654;23.360;2022-09-09T12:13:37;15.52;;;8.10;;
6388;SDS011;3227;42.654;23.360;2022-09-09T12:19:14;11.73;;;8.20;;
6388;SDS011;3227;42.654;23.360;2022-09-09T12:21:44;14.15;;;8.63;;
6388;SDS011;3227;42.654;23.360;2022-09-09T12:24:19;14.00;;;7.45;;
6388;SDS011;3227;42.654;23.360;2022-09-09T12:26:54;17.52;;;8.40;;
6388;SDS011;3227;42.654;23.360;2022-09-09T12:29:27;14.07;;;8.50;;
6388;SDS011;3227;42.654;23.360;2022-09-09T12:32:05;18.33;;;8.20;;
6388;SDS011;3227;42.654;23.360;2022-09-09T12:34:38;21.42;;;9.05;;
6388;SDS011;3227;42.654;23.360;2022-09-09T12:37:09;14.25;;;8.23;;
6388;SDS011;3227;42.654;23.360;2022-09-09T12:39:44;17.40;;;9.07;;
6388;SDS011;3227;42.654;23.360;2022-09-09T12:42:16;17.55;;;8.85;;
6388;SDS011;3227;42.654;23.360;2022-09-09T12:44:50;17.17;;;8.88;;
6388;SDS011;3227;42.654;23.360;2022-09-09T12:47:18;17.08;;;9.00;;
6388;SDS011;3227;42.654;23.360;2022-09-09T12:49:49;14.82;;;8.30;;
6388;SDS011;3227;42.654;23.360;2022-09-09T12:52:19;15.20;;;8.30;;
6388;SDS011;3227;42.654;23.360;2022-09-09T12:54:55;19.08;;;8.95;;
6388;SDS011;3227;42.654;23.360;2022-09-09T12:57:23;16.17;;;9.10;;
6388;SDS011;3227;42.654;23.360;2022-09-09T12:59:52;15.43;;;7.97;;
6388;SDS011;3227;42.654;23.360;2022-09-09T13:02:30;15.18;;;8.63;;
6388;SDS011;3227;42.654;23.360;2022-09-09T13:05:08;18.85;;;8.50;;
6388;SDS011;3227;42.654;23.360;2022-09-09T13:07:41;18.70;;;8.57;;
6388;SDS011;3227;42.654;23.360;2022-09-09T13:10:10;14.95;;;8.35;;
6388;SDS011;3227;42.654;23.360;2022-09-09T13:12:38;16.50;;;8.50;;
6388;SDS011;3227;42.654;23.360;2022-09-09T13:15:09;15.85;;;8.60;;
6388;SDS011;3227;42.654;23.360;2022-09-09T13:17:40;12.57;;;8.73;;
6388;SDS011;3227;42.654;23.360;2022-09-09T13:20:15;19.55;;;8.98;;
6388;SDS011;3227;42.654;23.360;2022-09-09T13:22:43;14.88;;;8.27;;
6388;SDS011;3227;42.654;23.360;2022-09-09T13:25:17;19.35;;;9.27;;
6388;SDS011;3227;42.654;23.360;2022-09-09T13:27:54;14.43;;;8.77;;
6388;SDS011;3227;42.654;23.360;2022-09-09T13:30:24;14.95;;;7.80;;
6388;SDS011;3227;42.654;23.360;2022-09-09T13:33:03;16.20;;;9.52;;
6388;SDS011;3227;42.654;23.360;2022-09-09T13:35:33;12.43;;;8.05;;
6388;SDS011;3227;42.654;23.360;2022-09-09T13:38:08;15.18;;;8.50;;
6388;SDS011;3227;42.654;23.360;2022-09-09T13:40:35;14.68;;;7.93;;
6388;SDS011;3227;42.654;23.360;2022-09-09T13:43:03;16.88;;;8.80;;
6388;SDS011;3227;42.654;23.360;2022-09-09T13:45:30;16.52;;;8.63;;
6388;SDS011;3227;42.654;23.360;2022-09-09T13:47:59;22.52;;;9.15;;
6388;SDS011;3227;42.654;23.360;2022-09-09T13:50:36;14.75;;;8.50;;
6388;SDS011;3227;42.654;23.360;2022-09-09T13:53:03;18.20;;;8.68;;
6388;SDS011;3227;42.654;23.360;2022-09-09T13:55:30;15.43;;;8.07;;
6388;SDS011;3227;42.654;23.360;2022-09-09T13:57:57;15.68;;;8.95;;
6388;SDS011;3227;42.654;23.360;2022-09-09T14:00:25;18.13;;;9.35;;
6388;SDS011;3227;42.654;23.360;2022-09-09T14:02:53;19.35;;;9.00;;
6388;SDS011;3227;42.654;23.360;2022-09-09T14:05:25;16.17;;;9.27;;
6388;SDS011;3227;42.654;23.360;2022-09-09T14:07:53;16.40;;;8.85;;
6388;SDS011;3227;42.654;23.360;2022-09-09T14:10:20;15.00;;;8.30;;
6388;SDS011;3227;42.654;23.360;2022-09-09T14:12:47;17.42;;;8.65;;
6388;SDS011;3227;42.654;23.360;2022-09-09T14:15:14;19.33;;;8.77;;
6388;SDS011;3227;42.654;23.360;2022-09-09T14:17:41;20.80;;;8.45;;
6388;SDS011;3227;42.654;23.360;2022-09-09T14:20:08;21.35;;;8.50;;
6388;SDS011;3227;42.654;23.360;2022-09-09T14:22:37;18.75;;;8.38;;
6388;SDS011;3227;42.654;23.360;2022-09-09T14:25:07;16.73;;;9.13;;
6388;SDS011;3227;42.654;23.360;2022-09-09T14:27:34;19.63;;;8.48;;
6388;SDS011;3227;42.654;23.360;2022-09-09T14:30:02;17.38;;;8.15;;
6388;SDS011;3227;42.654;23.360;2022-09-09T14:32:29;20.58;;;8.52;;
6388;SDS011;3227;42.654;23.360;2022-09-09T14:34:56;18.20;;;8.32;;
6388;SDS011;3227;42.654;23.360;2022-09-09T14:37:23;13.95;;;7.88;;
6388;SDS011;3227;42.654;23.360;2022-09-09T14:39:50;20.30;;;8.50;;
6388;SDS011;3227;42.654;23.360;2022-09-09T14:42:18;18.02;;;7.50;;
6388;SDS011;3227;42.654;23.360;2022-09-09T14:44:45;13.80;;;7.70;;
6388;SDS011;3227;42.654;23.360;2022-09-09T14:47:12;13.85;;;7.22;;
6388;SDS011;3227;42.654;23.360;2022-09-09T14:49:39;17.27;;;7.65;;
6388;SDS011;3227;42.654;23.360;2022-09-09T14:52:06;13.80;;;7.45;;
6388;SDS011;3227;42.654;23.360;2022-09-09T14:54:34;18.52;;;8.35;;
6388;SDS011;3227;42.654;23.360;2022-09-09T14:57:01;20.75;;;8.65;;
6388;SDS011;3227;42.654;23.360;2022-09-09T14:59:29;18.38;;;8.27;;
6388;SDS011;3227;42.654;23.360;2022-09-09T15:01:56;12.82;;;7.40;;
6388;SDS011;3227;42.654;23.360;2022-09-09T15:04:23;16.20;;;7.95;;
6388;SDS011;3227;42.654;23.360;2022-09-09T15:06:50;15.13;;;7.70;;
6388;SDS011;3227;42.654;23.360;2022-09-09T15:09:18;14.60;;;8.15;;
6388;SDS011;3227;42.654;23.360;2022-09-09T15:11:45;18.33;;;7.93;;
6388;SDS011;3227;42.654;23.360;2022-09-09T15:14:11;14.40;;;7.55;;
6388;SDS011;3227;42.654;23.360;2022-09-09T15:16:40;19.08;;;8.32;;